createdAt,value
2024-01-05T00:02:55.450Z,95285.63
2024-01-05T00:08:57.278Z,95282.06
2024-01-05T00:14:58.982Z,95273.25
2024-01-05T00:21:00.590Z,95259.97
2024-01-05T00:27:04.094Z,95257.88
2024-01-05T00:33:05.980Z,95258.94
2024-01-05T00:39:07.623Z,95251.75
2024-01-05T00:45:09.911Z,95251.09
2024-01-05T00:51:12.282Z,95246.97
2024-01-05T00:57:14.237Z,95244.72
2024-01-05T01:03:15.956Z,95233.41
2024-01-05T01:09:18.014Z,95221.69
2024-01-05T01:15:19.720Z,95221.56
2024-01-05T01:21:21.352Z,95211.56
2024-01-05T01:27:22.945Z,95203.22
2024-01-05T01:33:24.887Z,95193.56
2024-01-05T01:39:26.514Z,95183.06
2024-01-05T01:45:28.174Z,95176.09
2024-01-05T01:51:34.297Z,95181.63
2024-01-05T01:57:38.505Z,95178.53
2024-01-05T02:03:41.245Z,95183.00
2024-01-05T02:09:43.490Z,95178.09
2024-01-05T02:15:45.045Z,95158.78
2024-01-05T02:21:51.022Z,95160.56
2024-01-05T02:27:53.225Z,95140.22
2024-01-05T02:33:55.014Z,95118.34
2024-01-05T02:39:56.674Z,95111.91
2024-01-05T02:45:58.518Z,95100.16
2024-01-05T02:52:00.178Z,95085.19
2024-01-05T02:58:06.570Z,95076.72
2024-01-05T03:04:12.546Z,95074.28
2024-01-05T03:10:14.429Z,95055.81
2024-01-05T03:16:16.151Z,95057.59
2024-01-05T03:22:17.864Z,95054.28
2024-01-05T03:28:19.443Z,95029.84
2024-01-05T03:34:21.135Z,95019.59
2024-01-05T03:40:23.549Z,95010.25
2024-01-05T03:46:25.110Z,94997.31
2024-01-05T03:52:26.700Z,95013.03
2024-01-05T03:58:29.491Z,95028.38
2024-01-05T04:04:31.266Z,94997.91
2024-01-05T04:10:32.877Z,94989.56
2024-01-05T04:16:34.813Z,94984.47
2024-01-05T04:22:36.460Z,94962.16
2024-01-05T04:28:38.025Z,94956.03
2024-01-05T04:34:39.744Z,94953.19
2024-01-05T04:40:41.473Z,94970.31
2024-01-05T04:46:43.643Z,94989.84
2024-01-05T04:52:45.358Z,94976.97
2024-01-05T04:58:46.993Z,94984.28
2024-01-05T05:04:48.988Z,94984.00
2024-01-05T05:10:50.763Z,94975.53
2024-01-05T05:16:52.374Z,94977.25
2024-01-05T05:22:54.027Z,94970.53
2024-01-05T05:28:57.808Z,94955.88
2024-01-05T05:34:59.430Z,94954.03
2024-01-05T05:41:02.044Z,94958.69
2024-01-05T05:47:03.842Z,94954.63
2024-01-05T05:53:05.483Z,94944.56
2024-01-05T05:59:07.257Z,94947.09
2024-01-05T06:05:08.947Z,94959.13
2024-01-05T06:11:10.551Z,94966.56
2024-01-05T06:17:12.173Z,94980.53
2024-01-05T06:23:16.444Z,95001.63
2024-01-05T06:29:18.805Z,94994.91
2024-01-05T06:35:20.360Z,94991.84
2024-01-05T06:41:21.946Z,95002.97
2024-01-05T06:47:23.585Z,94997.50
2024-01-05T06:53:25.194Z,95029.78
2024-01-05T06:59:31.219Z,95022.16
2024-01-05T07:05:32.938Z,95033.88
2024-01-05T07:11:35.651Z,95030.19
2024-01-05T07:17:38.532Z,95027.94
2024-01-05T07:23:40.451Z,95023.13
2024-01-05T07:29:42.021Z,95029.53
2024-01-05T07:35:43.605Z,95021.50
2024-01-05T07:41:45.486Z,95011.38
2024-01-05T07:47:49.235Z,95012.50
2024-01-05T07:53:51.126Z,95008.56
2024-01-05T07:59:52.822Z,94992.63
2024-01-05T08:05:54.497Z,94996.38
2024-01-05T08:11:56.130Z,94993.09
2024-01-05T08:17:58.377Z,95009.34
2024-01-05T08:24:00.173Z,95020.72
2024-01-05T08:30:01.898Z,95020.19
2024-01-05T08:36:03.801Z,95015.47
2024-01-05T08:42:05.778Z,95016.16
2024-01-05T08:48:07.573Z,95015.56
2024-01-05T08:54:11.002Z,95019.03
2024-01-05T09:00:14.808Z,95010.03
2024-01-05T09:06:16.556Z,95011.25
2024-01-05T09:12:18.175Z,95010.31
2024-01-05T09:18:19.908Z,95009.38
2024-01-05T09:24:21.678Z,95006.13
2024-01-05T09:30:25.950Z,95021.09
2024-01-05T09:36:27.656Z,95004.63
2024-01-05T09:42:29.363Z,95010.81
2024-01-05T09:48:36.722Z,94994.31
2024-01-05T09:54:44.641Z,94992.56
2024-01-05T10:00:51.192Z,94980.69
2024-01-05T10:07:00.383Z,94964.94
2024-01-05T10:13:08.012Z,94970.09
2024-01-05T10:19:20.756Z,94953.31
2024-01-05T10:25:23.308Z,94944.06
2024-01-05T10:31:25.095Z,94935.94
2024-01-05T10:37:26.919Z,94936.34
2024-01-05T10:43:28.499Z,94926.31
2024-01-05T10:49:31.882Z,94933.59
2024-01-05T10:55:36.307Z,94937.41
2024-01-05T11:01:38.841Z,94934.03
2024-01-05T11:07:41.885Z,94935.66
2024-01-05T11:14:02.210Z,94932.16
2024-01-05T11:20:20.913Z,94931.91
2024-01-05T11:26:37.305Z,94925.56
2024-01-05T11:32:40.385Z,94922.00
2024-01-05T11:38:48.245Z,94911.56
2024-01-05T11:44:49.799Z,94898.66
2024-01-05T11:50:51.384Z,94878.00
2024-01-05T11:56:55.871Z,94879.75
2024-01-05T12:03:04.585Z,94881.13
2024-01-05T12:09:06.475Z,94866.41
2024-01-05T12:15:09.706Z,94871.53
2024-01-05T12:21:17.557Z,94857.38
2024-01-05T12:27:20.310Z,94839.09
2024-01-05T12:33:22.741Z,94843.81
2024-01-05T12:39:24.437Z,94825.63
2024-01-05T12:45:27.452Z,94819.31
2024-01-05T12:51:29.212Z,94826.06
2024-01-05T12:57:31.492Z,94826.50
2024-01-05T13:03:33.345Z,94820.63
2024-01-05T13:09:35.139Z,94832.09
2024-01-05T13:15:36.776Z,94840.75
2024-01-05T13:21:38.651Z,94838.75
2024-01-05T13:27:41.320Z,94863.31
2024-01-05T13:33:43.870Z,94868.44
2024-01-05T13:39:45.566Z,94884.25
2024-01-05T13:45:47.273Z,94892.59
2024-01-05T13:51:49.046Z,94913.44
2024-01-05T13:57:50.689Z,94904.22
2024-01-05T14:03:52.305Z,94909.72
2024-01-05T14:09:54.246Z,94907.75
2024-01-05T14:15:55.815Z,94913.56
2024-01-05T14:21:58.949Z,94913.13
2024-01-05T14:28:00.548Z,94903.75
2024-01-05T14:34:03.466Z,94906.91
2024-01-05T14:40:07.237Z,94907.75
2024-01-05T14:46:13.716Z,94909.50
2024-01-05T14:52:15.379Z,94909.84
2024-01-05T14:58:17.001Z,94912.19
2024-01-05T15:04:18.879Z,94910.78
2024-01-05T15:10:21.598Z,94912.63
2024-01-05T15:16:23.384Z,94904.06
2024-01-05T15:22:25.072Z,94906.28
2024-01-05T15:28:26.784Z,94912.81
2024-01-05T15:34:28.506Z,94905.69
2024-01-05T15:40:31.204Z,94901.59
2024-01-05T15:46:34.477Z,94899.13
2024-01-05T15:52:36.594Z,94903.53
2024-01-05T15:58:39.579Z,94894.53
2024-01-05T16:04:41.331Z,94893.03
2024-01-05T16:10:43.142Z,94884.94
2024-01-05T16:16:45.900Z,94886.81
2024-01-05T16:22:47.516Z,94897.31
2024-01-05T16:28:58.092Z,94881.53
2024-01-05T16:35:02.800Z,94880.91
2024-01-05T16:41:08.170Z,94882.91
2024-01-05T16:47:09.919Z,94876.88
2024-01-05T16:53:11.973Z,94873.84
2024-01-05T16:59:13.591Z,94873.25
2024-01-05T17:05:18.940Z,94890.97
2024-01-05T17:11:24.761Z,94889.25
2024-01-05T17:17:29.796Z,94879.91
2024-01-05T17:23:34.255Z,94879.09
2024-01-05T17:29:36.714Z,94875.00
2024-01-05T17:35:38.420Z,94861.38
2024-01-05T17:41:40.441Z,94872.22
2024-01-05T17:47:42.205Z,94872.44
2024-01-05T17:53:44.969Z,94875.00
2024-01-05T17:59:47.776Z,94890.56
2024-01-05T18:05:51.804Z,94894.63
2024-01-05T18:11:53.941Z,94891.09
2024-01-05T18:17:56.445Z,94889.69
2024-01-05T18:24:01.137Z,94905.91
2024-01-05T18:30:03.946Z,94902.50
2024-01-05T18:36:07.440Z,94913.88
2024-01-05T18:42:10.046Z,94913.09
2024-01-05T18:48:12.590Z,94909.00
2024-01-05T18:54:14.326Z,94905.72
2024-01-05T19:00:16.476Z,94905.00
2024-01-05T19:06:18.284Z,94902.66
2024-01-05T19:12:20.509Z,94899.38
2024-01-05T19:18:22.390Z,94902.41
2024-01-05T19:24:24.717Z,94890.97
2024-01-05T19:30:26.986Z,94902.41
2024-01-05T19:36:28.926Z,94897.28
2024-01-05T19:42:30.675Z,94893.84
2024-01-05T19:48:32.667Z,94894.28
2024-01-05T19:54:39.611Z,94899.41
2024-01-05T20:00:41.347Z,94894.69
2024-01-05T20:06:44.011Z,94875.94
2024-01-05T20:12:47.225Z,94883.00
2024-01-05T20:18:49.413Z,94887.41
2024-01-05T20:24:51.143Z,94885.91
2024-01-05T20:30:52.989Z,94898.50
2024-01-05T20:36:58.593Z,94888.13
2024-01-05T20:43:00.332Z,94901.44
2024-01-05T20:49:02.154Z,94891.91
2024-01-05T20:55:04.190Z,94885.97
2024-01-05T21:01:06.609Z,94895.19
2024-01-05T21:07:11.063Z,94889.97
2024-01-05T21:13:13.721Z,94880.84
2024-01-05T21:19:15.718Z,94892.72
2024-01-05T21:25:17.912Z,94882.59
2024-01-05T21:31:21.049Z,94885.16
2024-01-05T21:37:24.042Z,94891.91
2024-01-05T21:43:25.612Z,94896.22
2024-01-05T21:49:27.833Z,94906.47
2024-01-05T21:55:29.884Z,94899.59
2024-01-05T22:01:31.750Z,94900.31
2024-01-05T22:07:33.408Z,94900.75
2024-01-05T22:13:35.194Z,94904.34
2024-01-05T22:19:36.997Z,94908.03
2024-01-05T22:25:41.444Z,94901.16
2024-01-05T22:31:45.057Z,94904.66
2024-01-05T22:37:47.715Z,94897.91
2024-01-05T22:43:50.946Z,94895.22
2024-01-05T22:49:52.817Z,94884.97
2024-01-05T22:55:55.630Z,94891.72
2024-01-05T23:01:59.007Z,94884.97
2024-01-05T23:08:00.750Z,94890.22
2024-01-05T23:14:03.361Z,94891.13
2024-01-05T23:20:06.488Z,94893.56
2024-01-05T23:26:20.026Z,94879.25
2024-01-05T23:32:22.401Z,94877.59
2024-01-05T23:38:24.412Z,94873.59
2024-01-05T23:44:26.022Z,94889.19
2024-01-05T23:50:34.611Z,94898.81
2024-01-05T23:56:36.169Z,94890.09
